Time;durP1;ratioP1;P1;durP2;ratioP2;P2;SDS_P1;SDS_P2;PMS_P1;PMS_P2;Temp;Humidity;BMP_temperature;BMP_pressure;BME280_temperature;BME280_humidity;BME280_pressure;Samples;Min_cycle;Max_cycle;Signal;HPM_P1;HPM_P2
2022/08/07 16:54:05;;;;;;;7.53;3.72;;;;;;;23.56;45.59;102560.41;4986596;27;20608;-57
2022/08/07 16:56:51;;;;;;;6.82;3.85;;;;;;;23.90;43.84;102558.16;4964824;28;20535;-57
2022/08/07 16:59:48;;;;;;;6.53;4.10;;;;;;;23.64;45.40;102558.53;4944076;28;20510;-57
2022/08/07 17:02:40;;;;;;;5.55;3.40;;;;;;;23.75;44.69;102552.16;4961504;28;20037;-58
2022/08/07 17:05:16;;;;;;;5.72;3.80;;;;;;;23.59;46.22;102555.94;4972885;28;20544;-57
2022/08/07 17:07:53;;;;;;;7.05;3.63;;;;;;;23.54;45.92;102560.47;4978648;28;20048;-58
2022/08/07 17:10:44;;;;;;;9.05;3.60;;;;;;;23.36;46.31;102550.88;4967425;28;20970;-59
2022/08/07 17:13:15;;;;;;;6.55;3.60;;;;;;;23.22;47.24;102557.28;4973563;28;20048;-59
2022/08/07 17:15:50;;;;;;;6.75;3.70;;;;;;;23.16;46.21;102554.69;4981115;28;20156;-58
2022/08/07 17:18:27;;;;;;;9.70;3.78;;;;;;;23.31;46.01;102547.41;4975026;28;20156;-58
2022/08/07 17:20:54;;;;;;;5.43;3.58;;;;;;;23.18;46.79;102550.22;4952866;28;20049;-58
2022/08/07 17:23:22;;;;;;;7.18;3.47;;;;;;;23.15;46.20;102544.97;4973521;28;20042;-59
2022/08/07 17:25:52;;;;;;;7.60;3.90;;;;;;;23.19;47.00;102544.00;4973298;28;20050;-59
2022/08/07 17:28:41;;;;;;;7.90;4.35;;;;;;;22.95;47.10;102548.72;4950071;28;20062;-58
2022/08/07 17:31:14;;;;;;;5.57;3.90;;;;;;;22.98;47.76;102543.38;4959113;28;20492;-58
2022/08/07 17:33:50;;;;;;;8.07;4.20;;;;;;;22.73;48.38;102531.25;4981193;28;20025;-57
2022/08/07 17:36:22;;;;;;;7.75;4.32;;;;;;;22.79;48.34;102532.97;4973813;28;20119;-58
2022/08/07 17:39:14;;;;;;;5.70;3.72;;;;;;;22.72;47.52;102529.50;4991788;28;20029;-58
2022/08/07 17:41:56;;;;;;;6.88;3.70;;;;;;;22.55;47.34;102531.41;4960991;28;20048;-58
2022/08/07 17:44:35;;;;;;;7.80;4.18;;;;;;;22.80;47.69;102532.06;5002446;28;20087;-57
2022/08/07 17:47:35;;;;;;;8.55;4.15;;;;;;;22.66;49.37;102534.84;5007442;28;20431;-58
2022/08/07 17:50:16;;;;;;;7.75;4.00;;;;;;;22.24;50.59;102534.34;4973869;28;20037;-57
2022/08/07 17:52:55;;;;;;;8.05;4.30;;;;;;;22.20;50.08;102529.09;4999779;28;20154;-59
2022/08/07 17:55:31;;;;;;;6.63;3.88;;;;;;;22.24;49.72;102530.81;4985456;28;20057;-57
2022/08/07 17:58:02;;;;;;;7.50;4.03;;;;;;;22.36;49.77;102536.03;4993696;28;20022;-57
2022/08/07 18:00:31;;;;;;;6.40;3.88;;;;;;;22.16;51.71;102535.31;4984688;28;20523;-60
2022/08/07 18:03:09;;;;;;;7.13;3.55;;;;;;;22.05;50.82;102530.09;4993355;28;20758;-57
2022/08/07 18:06:13;;;;;;;5.55;3.55;;;;;;;22.30;50.25;102528.09;4991533;28;20159;-58
2022/08/07 18:08:39;;;;;;;8.57;3.47;;;;;;;22.27;50.34;102528.13;4983185;28;20056;-57
2022/08/07 18:11:31;;;;;;;9.57;3.80;;;;;;;22.30;50.25;102530.75;4986871;28;20037;-58
2022/08/07 18:14:21;;;;;;;7.60;4.10;;;;;;;22.23;50.91;102537.91;4976741;28;20047;-58
2022/08/07 18:16:52;;;;;;;9.48;4.30;;;;;;;22.14;50.98;102531.78;4990705;28;20129;-57
2022/08/07 18:19:18;;;;;;;5.75;4.05;;;;;;;22.00;50.87;102537.22;4984377;28;20052;-58
2022/08/07 18:21:52;;;;;;;6.50;3.67;;;;;;;22.01;51.02;102540.75;4983567;28;20029;-56
2022/08/07 18:24:33;;;;;;;8.90;4.20;;;;;;;21.99;50.90;102546.06;4970307;28;20079;-58
2022/08/07 18:27:01;;;;;;;7.90;4.35;;;;;;;21.90;51.92;102543.44;4988690;28;20417;-58
2022/08/07 18:29:48;;;;;;;7.75;4.05;;;;;;;21.93;51.87;102542.53;4983897;28;20127;-57
2022/08/07 18:32:17;;;;;;;6.65;4.00;;;;;;;21.59;53.10;102542.72;4967504;28;20084;-58
2022/08/07 18:35:24;;;;;;;7.40;4.05;;;;;;;21.60;52.26;102548.94;4983485;28;20122;-57
2022/08/07 18:38:14;;;;;;;10.52;4.20;;;;;;;21.48;53.14;102546.34;4981324;28;20435;-57
2022/08/07 18:41:02;;;;;;;7.78;4.78;;;;;;;21.56;52.73;102539.22;4980736;28;21058;-64
2022/08/07 18:43:34;;;;;;;9.20;4.18;;;;;;;21.49;53.68;102543.69;4988635;28;20033;-58
2022/08/07 18:46:03;;;;;;;9.30;3.90;;;;;;;21.50;54.58;102542.81;4980741;28;20043;-58
2022/08/07 18:48:49;;;;;;;7.18;4.07;;;;;;;21.54;53.92;102539.22;4979754;28;20045;-58
2022/08/07 18:51:35;;;;;;;7.53;4.65;;;;;;;21.47;54.36;102545.47;4973785;28;20123;-58
2022/08/07 18:54:28;;;;;;;7.90;4.70;;;;;;;21.24;55.84;102550.88;4974159;28;20458;-58
2022/08/07 18:57:05;;;;;;;8.27;4.85;;;;;;;21.06;56.48;102557.09;4974583;28;20058;-58
2022/08/07 18:59:49;;;;;;;10.88;6.05;;;;;;;21.15;55.48;102550.94;4989364;28;20602;-57
2022/08/07 19:02:54;;;;;;;11.07;6.10;;;;;;;20.98;56.20;102550.94;4981294;28;20908;-56
2022/08/07 19:05:38;;;;;;;7.53;5.35;;;;;;;20.96;56.28;102550.06;4983861;28;20072;-56
2022/08/07 19:08:13;;;;;;;17.75;6.53;;;;;;;20.82;57.31;102559.81;4986611;28;20034;-57
2022/08/07 19:10:45;;;;;;;11.18;5.97;;;;;;;20.77;57.64;102558.06;4975370;28;20193;-57
2022/08/07 19:13:52;;;;;;;12.43;7.18;;;;;;;20.57;57.91;102568.69;4986036;28;20022;-57
2022/08/07 19:16:31;;;;;;;8.88;6.32;;;;;;;20.52;58.34;102562.53;4968165;28;20057;-57
2022/08/07 19:19:03;;;;;;;9.68;7.43;;;;;;;20.09;59.38;102570.44;4968399;28;20119;-62
2022/08/07 19:21:38;;;;;;;13.55;7.07;;;;;;;20.12;59.68;102569.56;4984368;28;20209;-60
2022/08/07 19:24:09;;;;;;;12.07;7.28;;;;;;;20.11;59.60;102568.69;4984372;28;20029;-59
2022/08/07 19:26:42;;;;;;;9.45;6.60;;;;;;;20.07;59.90;102571.31;4968470;28;20038;-60
2022/08/07 19:29:07;;;;;;;10.35;6.80;;;;;;;20.01;59.96;102579.22;4976920;28;20063;-60
2022/08/07 19:31:52;;;;;;;13.60;7.50;;;;;;;19.80;60.57;102575.69;4978638;28;20145;-61
2022/08/07 19:34:21;;;;;;;15.18;7.78;;;;;;;19.70;61.12;102581.81;4976412;28;20539;-61
2022/08/07 19:36:51;;;;;;;11.13;7.25;;;;;;;19.68;61.29;102580.06;4967059;28;20531;-58
2022/08/07 19:39:22;;;;;;;11.95;7.88;;;;;;;19.70;60.99;102578.31;4984547;28;20056;-58
2022/08/07 19:41:51;;;;;;;11.30;7.65;;;;;;;19.68;61.23;102577.41;4976744;28;20037;-58
2022/08/07 19:44:25;;;;;;;15.10;8.25;;;;;;;19.63;61.53;102581.81;4972737;28;20133;-60
2022/08/07 19:46:54;;;;;;;14.20;9.07;;;;;;;19.42;62.63;102583.47;4985531;28;20032;-59
2022/08/07 19:49:23;;;;;;;13.25;8.93;;;;;;;19.36;62.48;102583.44;4988982;28;20032;-60
2022/08/07 19:51:52;;;;;;;13.13;8.48;;;;;;;19.25;63.28;102590.44;4964265;28;20048;-58
2022/08/07 19:54:18;;;;;;;12.50;8.80;;;;;;;19.26;62.48;102597.50;4973764;28;20128;-58
2022/08/07 19:56:51;;;;;;;12.32;6.95;;;;;;;19.32;62.22;102597.53;4979739;28;20041;-59
2022/08/07 19:59:34;;;;;;;12.48;7.35;;;;;;;19.36;62.08;102599.31;4967342;28;20786;-63
2022/08/07 20:02:02;;;;;;;11.07;6.95;;;;;;;19.36;62.00;102601.94;4984979;28;20048;-59
2022/08/07 20:04:48;;;;;;;10.75;7.68;;;;;;;19.18;62.30;102599.22;4975601;28;20067;-59
2022/08/07 20:07:24;;;;;;;12.77;7.57;;;;;;;18.94;64.75;102605.25;4990328;28;20576;-58
2022/08/07 20:09:51;;;;;;;10.20;6.60;;;;;;;18.98;63.33;102608.78;4981340;28;20036;-59
2022/08/07 20:12:23;;;;;;;9.80;6.80;;;;;;;19.05;62.76;102608.84;4977813;28;20206;-57
2022/08/07 20:14:52;;;;;;;9.52;6.70;;;;;;;19.15;61.93;102615.06;4987072;28;20017;-58
2022/08/07 20:17:28;;;;;;;10.50;6.60;;;;;;;19.12;61.94;102609.75;4974548;28;20473;-58
2022/08/07 20:20:03;;;;;;;13.52;7.20;;;;;;;18.82;64.18;102618.38;4970612;28;20018;-58
2022/08/07 20:22:40;;;;;;;12.45;7.30;;;;;;;18.80;63.68;102614.84;4974165;28;20068;-59
2022/08/07 20:25:17;;;;;;;13.30;6.60;;;;;;;18.88;63.50;102612.25;4959024;28;20037;-58
2022/08/07 20:27:44;;;;;;;10.75;7.07;;;;;;;18.86;62.83;102603.41;4975536;28;20244;-58
2022/08/07 20:30:10;;;;;;;13.20;7.47;;;;;;;18.72;63.27;102611.28;4976746;28;20360;-58
2022/08/07 20:32:46;;;;;;;9.45;6.20;;;;;;;18.75;63.15;102602.47;4983854;28;20592;-58
2022/08/07 20:35:36;;;;;;;9.10;6.45;;;;;;;18.81;63.02;102605.16;4982949;28;20017;-57
2022/08/07 20:38:06;;;;;;;9.82;6.10;;;;;;;18.83;62.63;102596.38;4985993;28;20132;-58
2022/08/07 20:40:39;;;;;;;12.13;7.18;;;;;;;18.58;63.46;102599.72;4973455;28;20036;-57
2022/08/07 20:43:07;;;;;;;11.13;6.47;;;;;;;18.63;63.76;102608.53;4982182;28;20068;-57
2022/08/07 20:45:33;;;;;;;7.47;5.50;;;;;;;18.72;63.42;102607.75;4984555;28;20396;-57
2022/08/07 20:48:00;;;;;;;9.75;6.20;;;;;;;18.75;63.53;102598.06;4973051;28;20440;-57
2022/08/07 20:50:42;;;;;;;9.55;6.43;;;;;;;18.49;63.59;102603.13;4973543;28;20040;-59
2022/08/07 20:53:17;;;;;;;13.20;7.18;;;;;;;18.42;65.06;102598.66;4975846;28;20041;-57
2022/08/07 20:55:53;;;;;;;9.85;6.40;;;;;;;18.53;64.71;102602.28;4981646;28;20305;-56
2022/08/07 20:58:24;;;;;;;10.75;6.20;;;;;;;18.56;64.27;102601.44;4960496;28;20091;-57
2022/08/07 21:01:05;;;;;;;11.55;6.40;;;;;;;18.60;63.78;102604.13;4983016;28;20422;-57
2022/08/07 21:03:37;;;;;;;10.23;7.10;;;;;;;18.52;63.74;102602.28;4978478;28;20672;-58
2022/08/07 21:06:13;;;;;;;9.32;6.82;;;;;;;18.53;63.87;102609.31;4970743;28;20907;-58
2022/08/07 21:08:52;;;;;;;9.27;6.25;;;;;;;18.62;63.48;102612.06;4980473;28;20557;-59
2022/08/07 21:11:21;;;;;;;10.38;6.40;;;;;;;18.61;63.17;102605.00;4978752;28;20065;-59
2022/08/07 21:13:53;;;;;;;10.13;6.85;;;;;;;18.63;62.86;102613.84;4980804;28;20042;-59
2022/08/07 21:16:30;;;;;;;10.35;6.38;;;;;;;18.59;63.09;102609.41;4966183;28;20036;-59
2022/08/07 21:18:58;;;;;;;12.05;7.07;;;;;;;18.51;64.09;102617.22;4979361;28;20140;-59
2022/08/07 21:21:29;;;;;;;9.90;6.78;;;;;;;18.43;64.81;102615.38;4990026;28;20179;-57
2022/08/07 21:23:54;;;;;;;13.02;7.55;;;;;;;18.39;64.63;102613.59;4980924;28;20141;-58
2022/08/07 21:26:58;;;;;;;10.23;6.63;;;;;;;18.33;64.53;102611.78;4980148;28;21176;-58
2022/08/07 21:29:42;;;;;;;10.80;7.10;;;;;;;18.28;64.65;102608.22;4969083;28;20052;-58
2022/08/07 21:32:22;;;;;;;13.23;6.95;;;;;;;18.40;63.94;102607.44;4983343;28;20676;-60
2022/08/07 21:34:57;;;;;;;9.70;6.53;;;;;;;18.38;63.70;102611.81;4980400;28;20037;-59
2022/08/07 21:37:33;;;;;;;11.10;7.45;;;;;;;18.22;64.05;102609.06;4976274;28;20897;-59
2022/08/07 21:40:17;;;;;;;10.07;7.80;;;;;;;17.91;66.37;102606.97;4987184;28;20212;-59
2022/08/07 21:43:08;;;;;;;16.55;7.38;;;;;;;17.78;67.63;102597.16;4983914;28;20045;-60
2022/08/07 21:45:50;;;;;;;13.10;7.72;;;;;;;17.73;68.06;102604.13;4992785;28;20026;-55
2022/08/07 21:48:27;;;;;;;10.80;7.03;;;;;;;17.89;67.34;102613.97;4962024;28;20062;-58
2022/08/07 21:51:19;;;;;;;11.10;7.25;;;;;;;17.93;66.50;102610.50;4968075;28;20029;-55
2022/08/07 21:53:50;;;;;;;8.52;5.85;;;;;;;17.95;65.93;102616.69;4968872;28;20045;-56
2022/08/07 21:56:48;;;;;;;12.30;6.80;;;;;;;17.97;65.72;102614.06;5002594;28;20095;-56
2022/08/07 21:59:40;;;;;;;9.05;6.53;;;;;;;17.76;65.88;102618.22;4949068;28;20160;-56
2022/08/07 22:02:17;;;;;;;11.93;7.15;;;;;;;17.63;67.26;102629.50;4989964;28;20828;-57
2022/08/07 22:04:49;;;;;;;11.23;7.53;;;;;;;17.68;67.84;102629.59;4983088;28;20053;-57
2022/08/07 22:07:24;;;;;;;11.20;7.78;;;;;;;17.63;67.41;102626.84;4984443;28;20029;-57
2022/08/07 22:09:57;;;;;;;14.70;7.95;;;;;;;17.70;66.94;102627.81;4978590;28;20669;-55
2022/08/07 22:12:28;;;;;;;11.23;8.00;;;;;;;17.64;67.13;102630.38;4988098;28;20063;-57
2022/08/07 22:15:01;;;;;;;11.20;7.70;;;;;;;17.70;67.13;102625.19;4984649;28;20065;-56
2022/08/07 22:17:43;;;;;;;11.87;7.30;;;;;;;17.79;67.31;102631.47;4976483;28;20032;-57
2022/08/07 22:20:19;;;;;;;10.43;6.88;;;;;;;17.85;66.57;102630.66;4987882;28;20093;-56
2022/08/07 22:22:49;;;;;;;12.95;7.65;;;;;;;17.83;66.34;102630.63;4988253;28;20500;-58
2022/08/07 22:25:27;;;;;;;12.20;7.88;;;;;;;17.69;66.97;102640.13;4968706;28;20063;-58
2022/08/07 22:28:07;;;;;;;11.50;7.45;;;;;;;17.69;66.95;102639.22;4979211;28;20025;-56
2022/08/07 22:30:49;;;;;;;11.63;8.07;;;;;;;17.66;67.38;102634.81;4996170;28;20034;-55
2022/08/07 22:33:19;;;;;;;12.75;7.45;;;;;;;17.75;67.07;102641.94;4980500;28;20052;-54
2022/08/07 22:35:54;;;;;;;9.95;6.82;;;;;;;17.79;66.87;102642.03;4986694;28;20053;-56
2022/08/07 22:38:32;;;;;;;13.68;6.75;;;;;;;17.82;66.49;102644.69;4991709;28;20049;-56
2022/08/07 22:41:08;;;;;;;10.73;6.97;;;;;;;17.84;65.99;102644.72;4982575;28;20033;-55
2022/08/07 22:43:48;;;;;;;11.15;7.68;;;;;;;17.77;65.98;102643.75;4964813;28;20038;-56
2022/08/07 22:46:36;;;;;;;10.50;8.23;;;;;;;17.66;66.65;102649.75;4982411;28;20037;-56
2022/08/07 22:49:46;;;;;;;13.13;8.43;;;;;;;17.65;66.54;102651.50;4987688;28;20051;-55
2022/08/07 22:52:20;;;;;;;10.98;7.30;;;;;;;17.64;66.93;102654.13;4977128;28;20044;-56
2022/08/07 22:55:06;;;;;;;;;;;;;;;17.60;66.78;102649.66;4994744;28;20029;-57
2022/08/07 22:57:58;;;;;;;12.90;8.50;;;;;;;17.49;68.06;102652.16;4992182;28;21711;-55
2022/08/07 23:00:59;;;;;;;13.10;8.70;;;;;;;17.47;68.42;102653.00;4987505;28;20080;-56
2022/08/07 23:03:38;;;;;;;13.20;8.93;;;;;;;17.35;69.19;102651.97;4979360;28;20037;-55
2022/08/07 23:06:36;;;;;;;13.88;8.63;;;;;;;17.27;69.60;102655.34;4982961;28;20404;-56
2022/08/07 23:09:17;;;;;;;11.75;8.82;;;;;;;17.23;69.91;102650.91;4984566;28;20094;-56
2022/08/07 23:12:11;;;;;;;15.32;9.00;;;;;;;17.19;70.15;102651.75;4986522;28;20033;-56
2022/08/07 23:14:56;;;;;;;12.48;8.82;;;;;;;17.27;70.12;102650.97;4984674;28;20053;-57
2022/08/07 23:18:26;;;;;;;12.55;8.57;;;;;;;17.35;69.42;102649.34;4980971;28;20443;-56
2022/08/07 23:21:18;;;;;;;10.88;7.65;;;;;;;17.42;68.91;102656.47;4937195;28;21755;-55
2022/08/07 23:24:13;;;;;;;10.75;7.13;;;;;;;17.51;68.44;102653.03;4940088;28;20038;-58
2022/08/07 23:26:38;;;;;;;10.05;7.80;;;;;;;17.44;67.67;102654.72;4974178;28;20056;-57
2022/08/07 23:29:25;;;;;;;10.48;7.47;;;;;;;17.40;67.82;102650.28;4989688;28;20025;-55
2022/08/07 23:32:03;;;;;;;10.48;6.90;;;;;;;17.42;67.54;102661.75;4983558;28;20099;-57
2022/08/07 23:34:56;;;;;;;8.65;6.20;;;;;;;17.53;67.44;102653.97;4983306;28;20056;-57
2022/08/07 23:37:47;;;;;;;9.48;6.00;;;;;;;17.64;66.66;102652.38;4980065;28;20034;-56
2022/08/07 23:41:00;;;;;;;7.65;5.47;;;;;;;17.79;65.88;102651.69;4993307;28;20408;-55
2022/08/07 23:43:51;;;;;;;6.82;5.03;;;;;;;17.86;65.72;102655.28;4989888;28;20116;-55
2022/08/07 23:46:38;;;;;;;7.70;4.75;;;;;;;17.87;65.45;102654.44;4988696;28;20377;-56
2022/08/07 23:49:52;;;;;;;7.65;4.95;;;;;;;17.85;65.45;102657.03;4973928;28;20030;-55
2022/08/07 23:52:35;;;;;;;8.75;5.45;;;;;;;17.75;65.24;102655.13;4969233;28;20041;-55
2022/08/07 23:55:23;;;;;;;8.20;5.50;;;;;;;17.62;65.71;102656.78;4985134;28;20568;-56
2022/08/07 23:57:54;;;;;;;7.90;5.43;;;;;;;17.55;66.04;102659.25;4976038;28;20049;-57
